sensor_id;sensor_type;location;lat;lon;timestamp;temperature;humidity
19864;DHT22;10094;48.820;9.226;2023-02-15T00:05:41;0.30;99.90
19864;DHT22;10094;48.820;9.226;2023-02-15T00:12:23;0.10;99.90
19864;DHT22;10094;48.820;9.226;2023-02-15T00:19:06;0.40;99.90
19864;DHT22;10094;48.820;9.226;2023-02-15T00:25:49;0.10;99.90
19864;DHT22;10094;48.820;9.226;2023-02-15T00:32:32;0.10;99.90
19864;DHT22;10094;48.820;9.226;2023-02-15T00:39:16;0.10;99.90
19864;DHT22;10094;48.820;9.226;2023-02-15T00:45:59;0.00;99.90
19864;DHT22;10094;48.820;9.226;2023-02-15T00:52:42;0.00;99.90
19864;DHT22;10094;48.820;9.226;2023-02-15T00:59:24;0.00;99.90
19864;DHT22;10094;48.820;9.226;2023-02-15T01:06:07;-0.10;99.90
19864;DHT22;10094;48.820;9.226;2023-02-15T01:12:50;-0.20;99.90
19864;DHT22;10094;48.820;9.226;2023-02-15T01:19:33;-0.20;99.90
19864;DHT22;10094;48.820;9.226;2023-02-15T01:26:16;-0.20;99.90
19864;DHT22;10094;48.820;9.226;2023-02-15T01:32:59;-0.20;99.90
19864;DHT22;10094;48.820;9.226;2023-02-15T01:39:45;-0.30;99.90
19864;DHT22;10094;48.820;9.226;2023-02-15T01:46:38;-0.40;99.90
19864;DHT22;10094;48.820;9.226;2023-02-15T01:53:32;-0.40;99.90
19864;DHT22;10094;48.820;9.226;2023-02-15T02:00:17;-0.30;99.90
19864;DHT22;10094;48.820;9.226;2023-02-15T02:07:03;-0.40;99.90
19864;DHT22;10094;48.820;9.226;2023-02-15T02:13:46;-0.30;99.90
19864;DHT22;10094;48.820;9.226;2023-02-15T02:27:56;-0.50;99.90
19864;DHT22;10094;48.820;9.226;2023-02-15T02:35:02;-0.50;99.90
19864;DHT22;10094;48.820;9.226;2023-02-15T02:48:36;-0.60;99.90
19864;DHT22;10094;48.820;9.226;2023-02-15T02:55:33;-0.60;99.90
19864;DHT22;10094;48.820;9.226;2023-02-15T03:02:23;-0.60;99.90
19864;DHT22;10094;48.820;9.226;2023-02-15T03:09:15;-0.60;99.90
19864;DHT22;10094;48.820;9.226;2023-02-15T03:16:00;-0.70;99.90
19864;DHT22;10094;48.820;9.226;2023-02-15T03:23:07;-0.70;99.90
19864;DHT22;10094;48.820;9.226;2023-02-15T03:29:55;-0.80;99.90
19864;DHT22;10094;48.820;9.226;2023-02-15T03:37:10;-0.90;99.90
19864;DHT22;10094;48.820;9.226;2023-02-15T03:44:00;-1.00;99.90
19864;DHT22;10094;48.820;9.226;2023-02-15T03:50:45;-1.10;99.90
19864;DHT22;10094;48.820;9.226;2023-02-15T03:57:46;-1.10;99.90
19864;DHT22;10094;48.820;9.226;2023-02-15T04:04:47;-1.20;99.90
19864;DHT22;10094;48.820;9.226;2023-02-15T04:11:30;-1.30;99.90
19864;DHT22;10094;48.820;9.226;2023-02-15T04:18:13;-1.40;99.90
19864;DHT22;10094;48.820;9.226;2023-02-15T04:24:55;-1.50;99.90
19864;DHT22;10094;48.820;9.226;2023-02-15T04:31:57;-1.50;99.90
19864;DHT22;10094;48.820;9.226;2023-02-15T04:38:40;-1.50;99.90
19864;DHT22;10094;48.820;9.226;2023-02-15T04:45:22;-1.50;99.90
19864;DHT22;10094;48.820;9.226;2023-02-15T04:52:05;-1.40;99.90
19864;DHT22;10094;48.820;9.226;2023-02-15T04:58:48;-1.40;99.90
19864;DHT22;10094;48.820;9.226;2023-02-15T05:05:30;-1.30;99.90
19864;DHT22;10094;48.820;9.226;2023-02-15T05:12:13;-1.30;99.90
19864;DHT22;10094;48.820;9.226;2023-02-15T05:18:55;-1.50;99.90
19864;DHT22;10094;48.820;9.226;2023-02-15T05:25:37;-1.90;99.90
19864;DHT22;10094;48.820;9.226;2023-02-15T05:32:39;-1.90;99.90
19864;DHT22;10094;48.820;9.226;2023-02-15T05:39:21;-1.70;99.90
19864;DHT22;10094;48.820;9.226;2023-02-15T05:46:04;-1.70;99.90
19864;DHT22;10094;48.820;9.226;2023-02-15T05:52:47;-1.50;99.90
19864;DHT22;10094;48.820;9.226;2023-02-15T05:59:31;-1.40;99.90
19864;DHT22;10094;48.820;9.226;2023-02-15T06:06:15;-1.40;99.90
19864;DHT22;10094;48.820;9.226;2023-02-15T06:12:57;-1.50;99.90
19864;DHT22;10094;48.820;9.226;2023-02-15T06:19:40;-1.40;99.90
19864;DHT22;10094;48.820;9.226;2023-02-15T06:26:22;-1.50;99.90
19864;DHT22;10094;48.820;9.226;2023-02-15T06:33:05;-1.60;99.90
19864;DHT22;10094;48.820;9.226;2023-02-15T06:39:47;-1.60;99.90
19864;DHT22;10094;48.820;9.226;2023-02-15T06:46:30;-1.50;99.90
19864;DHT22;10094;48.820;9.226;2023-02-15T06:53:12;-1.50;99.90
19864;DHT22;10094;48.820;9.226;2023-02-15T06:59:55;-1.40;99.90
19864;DHT22;10094;48.820;9.226;2023-02-15T07:06:37;-1.30;99.90
19864;DHT22;10094;48.820;9.226;2023-02-15T07:13:20;-1.20;99.90
19864;DHT22;10094;48.820;9.226;2023-02-15T07:20:08;-1.30;99.90
19864;DHT22;10094;48.820;9.226;2023-02-15T07:26:50;-1.20;99.90
19864;DHT22;10094;48.820;9.226;2023-02-15T07:33:33;-0.90;99.90
19864;DHT22;10094;48.820;9.226;2023-02-15T07:40:16;-0.60;99.90
19864;DHT22;10094;48.820;9.226;2023-02-15T07:46:58;-0.20;99.90
19864;DHT22;10094;48.820;9.226;2023-02-15T07:53:41;0.10;99.90
19864;DHT22;10094;48.820;9.226;2023-02-15T08:00:23;0.20;99.90
19864;DHT22;10094;48.820;9.226;2023-02-15T08:07:07;0.20;99.90
19864;DHT22;10094;48.820;9.226;2023-02-15T08:13:57;0.80;99.90
19864;DHT22;10094;48.820;9.226;2023-02-15T08:20:49;0.80;99.90
19864;DHT22;10094;48.820;9.226;2023-02-15T08:27:32;0.50;99.90
19864;DHT22;10094;48.820;9.226;2023-02-15T08:34:19;0.30;99.90
19864;DHT22;10094;48.820;9.226;2023-02-15T08:41:14;0.30;99.90
19864;DHT22;10094;48.820;9.226;2023-02-15T08:47:56;0.50;99.90
19864;DHT22;10094;48.820;9.226;2023-02-15T08:54:39;1.00;99.90
19864;DHT22;10094;48.820;9.226;2023-02-15T09:01:26;0.70;99.90
19864;DHT22;10094;48.820;9.226;2023-02-15T09:08:09;1.00;99.90
19864;DHT22;10094;48.820;9.226;2023-02-15T09:14:52;1.40;99.90
19864;DHT22;10094;48.820;9.226;2023-02-15T09:21:36;1.90;99.90
19864;DHT22;10094;48.820;9.226;2023-02-15T09:28:19;1.70;99.90
19864;DHT22;10094;48.820;9.226;2023-02-15T09:35:02;2.00;99.90
19864;DHT22;10094;48.820;9.226;2023-02-15T09:41:50;2.80;99.90
19864;DHT22;10094;48.820;9.226;2023-02-15T09:48:41;3.60;99.90
19864;DHT22;10094;48.820;9.226;2023-02-15T10:02:54;4.50;99.90
19864;DHT22;10094;48.820;9.226;2023-02-15T10:37:36;8.50;99.90
19864;DHT22;10094;48.820;9.226;2023-02-15T10:58:24;9.70;98.80
19864;DHT22;10094;48.820;9.226;2023-02-15T11:06:15;7.40;99.90
19864;DHT22;10094;48.820;9.226;2023-02-15T11:12:52;6.50;99.90
19864;DHT22;10094;48.820;9.226;2023-02-15T11:19:42;6.00;99.90
19864;DHT22;10094;48.820;9.226;2023-02-15T11:26:38;5.90;99.90
19864;DHT22;10094;48.820;9.226;2023-02-15T11:33:27;5.60;99.90
19864;DHT22;10094;48.820;9.226;2023-02-15T11:40:22;5.40;99.90
19864;DHT22;10094;48.820;9.226;2023-02-15T11:47:11;5.40;99.90
19864;DHT22;10094;48.820;9.226;2023-02-15T11:53:53;5.40;99.90
19864;DHT22;10094;48.820;9.226;2023-02-15T12:00:39;5.60;99.90
19864;DHT22;10094;48.820;9.226;2023-02-15T12:07:34;5.90;99.90
19864;DHT22;10094;48.820;9.226;2023-02-15T12:14:18;6.00;99.90
19864;DHT22;10094;48.820;9.226;2023-02-15T12:21:11;6.30;99.90
19864;DHT22;10094;48.820;9.226;2023-02-15T12:27:55;6.80;99.90
19864;DHT22;10094;48.820;9.226;2023-02-15T12:34:38;7.20;99.90
19864;DHT22;10094;48.820;9.226;2023-02-15T12:41:25;7.30;99.90
19864;DHT22;10094;48.820;9.226;2023-02-15T12:48:09;7.70;99.90
19864;DHT22;10094;48.820;9.226;2023-02-15T12:54:52;7.80;99.90
19864;DHT22;10094;48.820;9.226;2023-02-15T13:01:34;7.80;99.90
19864;DHT22;10094;48.820;9.226;2023-02-15T13:08:20;7.70;99.90
19864;DHT22;10094;48.820;9.226;2023-02-15T13:15:03;7.80;99.90
19864;DHT22;10094;48.820;9.226;2023-02-15T13:21:52;8.00;99.90
19864;DHT22;10094;48.820;9.226;2023-02-15T13:28:51;8.20;99.90
19864;DHT22;10094;48.820;9.226;2023-02-15T13:49:54;8.50;99.90
19864;DHT22;10094;48.820;9.226;2023-02-15T14:24:44;9.20;99.90
19864;DHT22;10094;48.820;9.226;2023-02-15T14:31:37;9.30;99.90
19864;DHT22;10094;48.820;9.226;2023-02-15T14:59:59;9.50;99.90
19864;DHT22;10094;48.820;9.226;2023-02-15T15:06:43;9.50;99.90
19864;DHT22;10094;48.820;9.226;2023-02-15T15:34:45;9.30;99.90
19864;DHT22;10094;48.820;9.226;2023-02-15T15:41:48;9.30;99.90
19864;DHT22;10094;48.820;9.226;2023-02-15T15:48:39;9.20;99.90
19864;DHT22;10094;48.820;9.226;2023-02-15T15:55:24;9.20;99.90
19864;DHT22;10094;48.820;9.226;2023-02-15T16:02:13;9.10;99.90
19864;DHT22;10094;48.820;9.226;2023-02-15T16:08:55;9.10;99.90
19864;DHT22;10094;48.820;9.226;2023-02-15T16:15:50;9.00;99.90
19864;DHT22;10094;48.820;9.226;2023-02-15T16:22:34;8.80;99.90
19864;DHT22;10094;48.820;9.226;2023-02-15T16:29:26;8.50;99.90
19864;DHT22;10094;48.820;9.226;2023-02-15T16:36:23;8.30;99.90
19864;DHT22;10094;48.820;9.226;2023-02-15T16:43:10;7.90;99.90
19864;DHT22;10094;48.820;9.226;2023-02-15T16:49:59;7.50;99.90
19864;DHT22;10094;48.820;9.226;2023-02-15T16:56:44;7.20;99.90
19864;DHT22;10094;48.820;9.226;2023-02-15T17:03:28;7.00;99.90
19864;DHT22;10094;48.820;9.226;2023-02-15T17:10:32;6.60;99.90
19864;DHT22;10094;48.820;9.226;2023-02-15T17:17:15;6.40;99.90
19864;DHT22;10094;48.820;9.226;2023-02-15T17:24:00;6.20;99.90
19864;DHT22;10094;48.820;9.226;2023-02-15T17:30:43;5.90;99.90
19864;DHT22;10094;48.820;9.226;2023-02-15T17:44:19;5.50;99.90
19864;DHT22;10094;48.820;9.226;2023-02-15T17:51:04;5.40;99.90
19864;DHT22;10094;48.820;9.226;2023-02-15T17:57:47;5.20;99.90
19864;DHT22;10094;48.820;9.226;2023-02-15T18:04:31;5.10;99.90
19864;DHT22;10094;48.820;9.226;2023-02-15T18:11:32;5.00;99.90
19864;DHT22;10094;48.820;9.226;2023-02-15T18:18:16;4.60;99.90
19864;DHT22;10094;48.820;9.226;2023-02-15T18:24:58;4.30;99.90
19864;DHT22;10094;48.820;9.226;2023-02-15T18:31:41;4.20;99.90
19864;DHT22;10094;48.820;9.226;2023-02-15T18:38:25;4.10;99.90
19864;DHT22;10094;48.820;9.226;2023-02-15T18:45:18;4.00;99.90
19864;DHT22;10094;48.820;9.226;2023-02-15T18:52:01;3.90;99.90
19864;DHT22;10094;48.820;9.226;2023-02-15T18:58:44;3.80;99.90
19864;DHT22;10094;48.820;9.226;2023-02-15T19:05:29;3.80;99.90
19864;DHT22;10094;48.820;9.226;2023-02-15T19:12:13;3.80;99.90
19864;DHT22;10094;48.820;9.226;2023-02-15T19:18:55;3.60;99.90
19864;DHT22;10094;48.820;9.226;2023-02-15T19:25:38;3.60;99.90
19864;DHT22;10094;48.820;9.226;2023-02-15T19:32:21;3.50;99.90
19864;DHT22;10094;48.820;9.226;2023-02-15T19:39:04;3.50;99.90
19864;DHT22;10094;48.820;9.226;2023-02-15T19:45:46;3.30;99.90
19864;DHT22;10094;48.820;9.226;2023-02-15T19:52:29;3.20;99.90
19864;DHT22;10094;48.820;9.226;2023-02-15T19:59:23;3.00;99.90
19864;DHT22;10094;48.820;9.226;2023-02-15T20:06:12;3.00;99.90
19864;DHT22;10094;48.820;9.226;2023-02-15T20:12:55;2.80;99.90
19864;DHT22;10094;48.820;9.226;2023-02-15T20:19:37;2.70;99.90
19864;DHT22;10094;48.820;9.226;2023-02-15T20:26:22;2.70;99.90
19864;DHT22;10094;48.820;9.226;2023-02-15T20:33:11;2.60;99.90
19864;DHT22;10094;48.820;9.226;2023-02-15T20:39:53;2.40;99.90
19864;DHT22;10094;48.820;9.226;2023-02-15T20:46:36;2.30;99.90
19864;DHT22;10094;48.820;9.226;2023-02-15T20:53:19;2.10;99.90
19864;DHT22;10094;48.820;9.226;2023-02-15T21:00:02;2.10;99.90
19864;DHT22;10094;48.820;9.226;2023-02-15T21:06:45;2.00;99.90
19864;DHT22;10094;48.820;9.226;2023-02-15T21:13:33;1.90;99.90
19864;DHT22;10094;48.820;9.226;2023-02-15T21:20:16;1.90;99.90
19864;DHT22;10094;48.820;9.226;2023-02-15T21:27:01;2.00;99.90
19864;DHT22;10094;48.820;9.226;2023-02-15T21:33:44;1.90;99.90
19864;DHT22;10094;48.820;9.226;2023-02-15T21:40:30;1.80;99.90
19864;DHT22;10094;48.820;9.226;2023-02-15T21:47:24;1.90;99.90
19864;DHT22;10094;48.820;9.226;2023-02-15T21:54:25;1.90;99.90
19864;DHT22;10094;48.820;9.226;2023-02-15T22:01:22;1.70;99.90
19864;DHT22;10094;48.820;9.226;2023-02-15T22:08:10;1.60;99.90
19864;DHT22;10094;48.820;9.226;2023-02-15T22:14:54;1.50;99.90
19864;DHT22;10094;48.820;9.226;2023-02-15T22:21:36;1.40;99.90
19864;DHT22;10094;48.820;9.226;2023-02-15T22:28:22;1.50;99.90
19864;DHT22;10094;48.820;9.226;2023-02-15T22:35:08;1.60;99.90
19864;DHT22;10094;48.820;9.226;2023-02-15T22:41:53;1.50;99.90
19864;DHT22;10094;48.820;9.226;2023-02-15T22:48:35;1.50;99.90
19864;DHT22;10094;48.820;9.226;2023-02-15T22:55:21;1.50;99.90
19864;DHT22;10094;48.820;9.226;2023-02-15T23:02:04;1.30;99.90
19864;DHT22;10094;48.820;9.226;2023-02-15T23:08:48;1.20;99.90
19864;DHT22;10094;48.820;9.226;2023-02-15T23:15:31;1.20;99.90
19864;DHT22;10094;48.820;9.226;2023-02-15T23:22:15;1.00;99.90
19864;DHT22;10094;48.820;9.226;2023-02-15T23:29:00;1.10;99.90
19864;DHT22;10094;48.820;9.226;2023-02-15T23:35:42;1.10;99.90
19864;DHT22;10094;48.820;9.226;2023-02-15T23:42:30;0.90;99.90
19864;DHT22;10094;48.820;9.226;2023-02-15T23:49:14;0.80;99.90
19864;DHT22;10094;48.820;9.226;2023-02-15T23:55:57;0.70;99.90
